Strona główna
METAR-TAF:

METAR-TAF

Lotnisko :

Port lotniczy Ronneby

Ronneby, Szwecja

Szerokość geograficzna: 56-16N, Długość geograficzna: 015-17E, wysokość: 58 m

Aktualna obserwacja pogody

Raport powstał 25 minut temu, godzina 04:50 UTC
Wiatr 5 kt od zachodnio-południowy zachód
Temperatura 6°C
Wilgotność 87%
Ciśnienie 1015 hPa
Widzialność 10 km lub więcej
Brak chmur poniżej 1500 m i brak chmur cumulonimbus

METAR: ESDF 090450Z 25005KT CAVOK 06/04 Q1015

czas: 07:15 (05:15 UTC)

Prognoza

Raport powstał 11 godziny i 45 minut temu, godzina 17:30 UTC
Prognoza ważna od 08 godzina 18 UTC do 08 godzina 22 UTC
Wiatr 8 kt od południowo-południowy zachód
Widzialność 10 km lub więcej
Brak chmur poniżej 1500 m i brak chmur cumulonimbus

TAF: ESDF 081730Z 0818/0822 20008KT CAVOK

Obserwacja i prognoza pogody dla ponad 4000 lotnisk (raport METAR i TAF).

Dostępne stacje oznaczono żółtymi i czerwonymi punktami na mapie.

Najedź kursorem aby zobaczyć nazwę stacji.

Kliknij aby zobaczyć obserwacje i prognozy pogody.

Aby zmienić mapę: kliknij na zielony przycisk z czarnym krzyżykiem, aby powiększyć; na zielony przycisk z myślnikiem, aby pomniejszyć; na zielone strzałki, aby przejść do map sąsiednich.


METAR-TAF: